createdAt,value
2022-11-26T00:02:24.541Z,99091.50
2022-11-26T00:04:52.276Z,99091.22
2022-11-26T00:07:21.568Z,99095.63
2022-11-26T00:09:49.443Z,99101.16
2022-11-26T00:12:25.270Z,99100.53
2022-11-26T00:14:52.489Z,99094.63
2022-11-26T00:17:20.448Z,99108.03
2022-11-26T00:19:47.421Z,99115.88
2022-11-26T00:22:24.589Z,99110.66
2022-11-26T00:24:52.854Z,99110.78
2022-11-26T00:27:19.701Z,99111.47
2022-11-26T00:29:46.539Z,99108.69
2022-11-26T00:32:21.929Z,99106.75
2022-11-26T00:34:49.290Z,99094.66
2022-11-26T00:37:33.893Z,99113.03
2022-11-26T00:40:01.904Z,99082.72
2022-11-26T00:42:28.526Z,99123.97
2022-11-26T00:44:55.198Z,99122.22
2022-11-26T00:47:21.818Z,99131.84
2022-11-26T00:49:48.607Z,99119.00
2022-11-26T00:52:33.767Z,99126.88
2022-11-26T00:55:06.132Z,99129.34
2022-11-26T00:57:32.955Z,99128.94
2022-11-26T00:59:59.599Z,99138.28
2022-11-26T01:02:26.293Z,99142.84
2022-11-26T01:04:52.943Z,99148.69
2022-11-26T01:07:19.942Z,99143.16
2022-11-26T01:09:47.504Z,99121.25
2022-11-26T01:12:15.044Z,99156.38
2022-11-26T01:14:41.880Z,99167.41
2022-11-26T01:17:11.535Z,99163.66
2022-11-26T01:19:38.263Z,99166.84
2022-11-26T01:22:05.020Z,99173.06
2022-11-26T01:24:31.641Z,99175.81
2022-11-26T01:26:58.314Z,99174.72
2022-11-26T01:29:25.121Z,99180.97
2022-11-26T01:31:51.889Z,99179.16
2022-11-26T01:34:18.518Z,99182.47
2022-11-26T01:36:45.273Z,99186.34
2022-11-26T01:39:17.642Z,99191.72
2022-11-26T01:41:53.301Z,99194.59
2022-11-26T01:44:29.426Z,99191.84
2022-11-26T01:46:57.516Z,99198.88
2022-11-26T01:49:27.299Z,99204.00
2022-11-26T01:52:12.301Z,99204.53
2022-11-26T01:54:42.315Z,99201.66
2022-11-26T01:57:16.773Z,99204.28
2022-11-26T01:59:46.914Z,99208.56
2022-11-26T02:02:13.620Z,99204.56
2022-11-26T02:04:55.734Z,99208.72
2022-11-26T02:07:22.497Z,99216.56
2022-11-26T02:09:49.600Z,99213.81
2022-11-26T02:12:16.647Z,99211.47
2022-11-26T02:14:44.395Z,99219.31
2022-11-26T02:17:39.205Z,99220.28
2022-11-26T02:20:15.019Z,99221.09
2022-11-26T02:22:53.266Z,99217.69
2022-11-26T02:25:29.042Z,99212.94
2022-11-26T02:28:29.656Z,99229.94
2022-11-26T02:31:09.718Z,99224.44
2022-11-26T02:33:48.413Z,99224.28
2022-11-26T02:36:24.696Z,99227.47
2022-11-26T02:38:51.994Z,99240.16
2022-11-26T02:41:18.648Z,99235.47
2022-11-26T02:43:45.742Z,99240.16
2022-11-26T02:46:17.256Z,99238.09
2022-11-26T02:48:49.074Z,99246.50
2022-11-26T02:51:23.987Z,99254.78
2022-11-26T02:53:52.756Z,99258.50
2022-11-26T02:56:23.353Z,99253.69
2022-11-26T02:58:52.106Z,99260.16
2022-11-26T03:01:27.288Z,99267.59
2022-11-26T03:03:56.884Z,99268.72
2022-11-26T03:06:25.818Z,99278.09
2022-11-26T03:08:54.265Z,99274.38
2022-11-26T03:11:21.462Z,99252.84
2022-11-26T03:13:49.639Z,99286.66
2022-11-26T03:16:19.543Z,99299.19
2022-11-26T03:18:46.623Z,99295.63
2022-11-26T03:21:13.183Z,99299.06
2022-11-26T03:23:39.940Z,99305.84
2022-11-26T03:26:06.735Z,99291.78
2022-11-26T03:28:33.327Z,99298.94
2022-11-26T03:30:59.898Z,99293.41
2022-11-26T03:33:26.651Z,99301.44
2022-11-26T03:35:53.251Z,99301.16
2022-11-26T03:38:19.900Z,99306.66
2022-11-26T03:40:55.165Z,99313.56
2022-11-26T03:43:21.799Z,99308.06
2022-11-26T03:45:48.411Z,99310.50
2022-11-26T03:48:15.209Z,99312.19
2022-11-26T03:50:41.789Z,99308.06
2022-11-26T03:53:08.815Z,99312.19
2022-11-26T03:55:35.493Z,99310.25
2022-11-26T03:58:02.164Z,99318.53
2022-11-26T04:00:28.985Z,99314.69
2022-11-26T04:02:56.114Z,99321.84
2022-11-26T04:05:22.757Z,99319.63
2022-11-26T04:07:49.468Z,99320.88
2022-11-26T04:10:16.254Z,99309.13
2022-11-26T04:12:42.975Z,99324.84
2022-11-26T04:15:10.136Z,99332.59
2022-11-26T04:17:36.907Z,99332.88
2022-11-26T04:20:04.204Z,99325.28
2022-11-26T04:22:30.896Z,99337.16
2022-11-26T04:24:57.657Z,99336.75
2022-11-26T04:27:24.311Z,99343.34
2022-11-26T04:29:50.899Z,99347.81
2022-11-26T04:32:17.566Z,99348.88
2022-11-26T04:34:44.149Z,99344.47
2022-11-26T04:37:10.823Z,99353.44
2022-11-26T04:39:37.459Z,99359.66
2022-11-26T04:42:04.279Z,99362.16
2022-11-26T04:44:30.866Z,99374.97
2022-11-26T04:46:57.638Z,99371.38
2022-11-26T04:49:24.365Z,99374.56
2022-11-26T04:51:51.229Z,99339.78
2022-11-26T04:54:17.872Z,99376.63
2022-11-26T04:56:44.594Z,99374.72
2022-11-26T04:59:11.171Z,99377.88
2022-11-26T05:01:37.979Z,99382.28
2022-11-26T05:04:04.792Z,99387.53
2022-11-26T05:06:31.421Z,99388.78
2022-11-26T05:08:58.089Z,99353.28
2022-11-26T05:11:24.739Z,99382.00
2022-11-26T05:13:51.316Z,99395.41
2022-11-26T05:16:18.331Z,99363.78
2022-11-26T05:18:44.971Z,99388.88
2022-11-26T05:21:11.665Z,99391.94
2022-11-26T05:23:38.377Z,99395.78
2022-11-26T05:26:05.139Z,99383.34
2022-11-26T05:28:31.745Z,99393.72
2022-11-26T05:31:00.281Z,99395.75
2022-11-26T05:33:27.361Z,99399.63
2022-11-26T05:35:54.137Z,99393.94
2022-11-26T05:38:20.950Z,99399.56
2022-11-26T05:40:47.682Z,99398.19
2022-11-26T05:43:14.244Z,99394.66
2022-11-26T05:45:41.044Z,99407.72
2022-11-26T05:48:07.658Z,99411.94
2022-11-26T05:50:34.453Z,99404.00
2022-11-26T05:53:01.131Z,99413.97
2022-11-26T05:55:27.846Z,99409.97
2022-11-26T05:57:54.421Z,99417.91
2022-11-26T06:00:21.277Z,99413.09
2022-11-26T06:02:47.980Z,99420.50
2022-11-26T06:05:14.787Z,99411.06
2022-11-26T06:07:44.565Z,99420.19
2022-11-26T06:10:12.732Z,99416.03
2022-11-26T06:12:39.330Z,99416.41
2022-11-26T06:15:06.804Z,99422.53
2022-11-26T06:17:33.521Z,99426.25
2022-11-26T06:20:00.196Z,99426.38
2022-11-26T06:22:26.939Z,99426.63
2022-11-26T06:24:53.615Z,99429.38
2022-11-26T06:27:20.183Z,99447.81
2022-11-26T06:29:46.942Z,99374.34
2022-11-26T06:32:13.518Z,99451.78
2022-11-26T06:34:43.545Z,99445.69
2022-11-26T06:37:10.751Z,99453.66
2022-11-26T06:39:37.383Z,99445.63
2022-11-26T06:42:04.253Z,99445.75
2022-11-26T06:44:31.053Z,99464.63
2022-11-26T06:46:57.754Z,99478.66
2022-11-26T06:49:24.334Z,99476.19
2022-11-26T06:51:51.151Z,99475.25
2022-11-26T06:54:17.720Z,99478.78
2022-11-26T06:56:44.491Z,99488.78
2022-11-26T06:59:11.376Z,99495.09
2022-11-26T07:01:38.549Z,99490.72
2022-11-26T07:04:05.299Z,99493.31
2022-11-26T07:06:33.238Z,99494.16
2022-11-26T07:09:04.135Z,99490.00
2022-11-26T07:11:31.085Z,99486.34
2022-11-26T07:13:57.785Z,99502.63
2022-11-26T07:16:24.715Z,99506.66
2022-11-26T07:18:57.788Z,99517.13
2022-11-26T07:21:28.647Z,99521.66
2022-11-26T07:23:55.575Z,99526.41
2022-11-26T07:26:23.614Z,99533.56
2022-11-26T07:28:50.977Z,99535.22
2022-11-26T07:31:20.878Z,99540.22
2022-11-26T07:33:48.125Z,99531.31
2022-11-26T07:36:20.708Z,99545.44
2022-11-26T07:38:48.247Z,99547.22
2022-11-26T07:41:17.567Z,99545.56
2022-11-26T07:43:45.278Z,99540.47
2022-11-26T07:46:15.750Z,99549.25
2022-11-26T07:48:42.724Z,99558.28
2022-11-26T07:51:18.483Z,99551.16
2022-11-26T07:53:45.995Z,99553.28
2022-11-26T07:56:12.593Z,99549.09
2022-11-26T07:58:39.421Z,99528.31
2022-11-26T08:01:11.808Z,99569.56
2022-11-26T08:03:43.207Z,99571.31
2022-11-26T08:06:12.272Z,99577.59
2022-11-26T08:08:38.925Z,99583.50
2022-11-26T08:11:13.087Z,99589.91
2022-11-26T08:13:40.706Z,99589.25
2022-11-26T08:16:07.816Z,99594.81
2022-11-26T08:18:35.597Z,99587.19
2022-11-26T08:21:02.434Z,99591.19
2022-11-26T08:23:30.461Z,99595.13
2022-11-26T08:26:21.546Z,99586.44
2022-11-26T08:28:45.524Z,99597.25
2022-11-26T08:31:13.725Z,99567.38
2022-11-26T08:33:40.689Z,99611.59
2022-11-26T08:36:08.810Z,99613.03
2022-11-26T08:38:36.427Z,99608.59
2022-11-26T08:41:05.991Z,99612.03
2022-11-26T08:44:04.714Z,99616.69
2022-11-26T08:46:22.166Z,99616.91
2022-11-26T08:48:48.803Z,99614.00
2022-11-26T08:51:15.486Z,99620.91
2022-11-26T08:53:42.126Z,99627.13
2022-11-26T08:56:11.957Z,99617.66
2022-11-26T08:58:43.342Z,99622.97
2022-11-26T09:01:12.002Z,99623.88
2022-11-26T09:03:38.799Z,99615.91
2022-11-26T09:06:07.293Z,99606.16
2022-11-26T09:08:37.577Z,99617.22
2022-11-26T09:11:04.273Z,99616.91
2022-11-26T09:13:30.949Z,99616.09
2022-11-26T09:15:57.740Z,99621.59
2022-11-26T09:18:24.417Z,99614.00
2022-11-26T09:20:56.858Z,99590.03
2022-11-26T09:23:23.911Z,99612.47
2022-11-26T09:25:50.585Z,99618.91
2022-11-26T09:28:17.382Z,99622.94
2022-11-26T09:30:43.978Z,99622.44
2022-11-26T09:33:10.655Z,99627.94
2022-11-26T09:35:37.375Z,99622.50
2022-11-26T09:38:04.118Z,99621.50
2022-11-26T09:40:45.675Z,99621.34
2022-11-26T09:43:30.287Z,99624.50
2022-11-26T09:46:00.521Z,99632.66
2022-11-26T09:48:30.992Z,99616.81
2022-11-26T09:51:08.023Z,99629.16
2022-11-26T09:53:41.072Z,99625.38
2022-11-26T09:56:14.857Z,99615.31
2022-11-26T09:58:52.237Z,99619.72
2022-11-26T10:01:21.795Z,99620.34
2022-11-26T10:03:48.634Z,99623.38
2022-11-26T10:06:18.376Z,99615.88
2022-11-26T10:09:21.746Z,99618.88
2022-11-26T10:11:51.944Z,99618.38
2022-11-26T10:14:32.453Z,99629.50
2022-11-26T10:17:04.855Z,99621.19
2022-11-26T10:20:08.823Z,99625.91
2022-11-26T10:22:45.776Z,99627.31
2022-11-26T10:25:21.424Z,99625.81
2022-11-26T10:27:49.555Z,99624.72
2022-11-26T10:30:20.085Z,99625.84
2022-11-26T10:32:49.642Z,99630.13
2022-11-26T10:35:18.312Z,99606.56
2022-11-26T10:37:45.332Z,99639.13
2022-11-26T10:40:32.301Z,99642.53
2022-11-26T10:43:08.183Z,99629.69
2022-11-26T10:45:45.893Z,99634.59
2022-11-26T10:48:27.499Z,99628.56
2022-11-26T10:51:12.176Z,99626.16
2022-11-26T10:53:55.155Z,99624.56
2022-11-26T10:56:43.442Z,99631.53
2022-11-26T10:59:22.043Z,99631.94
2022-11-26T11:01:51.657Z,99640.91
2022-11-26T11:04:44.805Z,99642.16
2022-11-26T11:07:35.955Z,99637.47
2022-11-26T11:10:15.542Z,99645.06
2022-11-26T11:12:49.988Z,99635.94
2022-11-26T11:15:19.909Z,99636.59
2022-11-26T11:17:54.648Z,99592.59
2022-11-26T11:20:29.688Z,99644.06
2022-11-26T11:23:03.175Z,99637.44
2022-11-26T11:25:33.142Z,99641.84
2022-11-26T11:28:20.468Z,99642.19
2022-11-26T11:30:56.908Z,99648.66
2022-11-26T11:33:27.434Z,99649.84
2022-11-26T11:36:12.391Z,99655.13
2022-11-26T11:38:59.859Z,99657.47
2022-11-26T11:41:36.796Z,99652.38
2022-11-26T11:44:18.404Z,99620.50
2022-11-26T12:21:41.082Z,99671.16
2022-11-26T12:24:29.424Z,99593.91
2022-11-26T12:27:03.265Z,99642.47
2022-11-26T12:29:29.900Z,99661.00
2022-11-26T12:32:21.239Z,99572.00
2022-11-26T12:34:51.974Z,99672.28
2022-11-26T12:37:28.308Z,99613.97
2022-11-26T12:40:19.539Z,99674.28
2022-11-26T12:42:59.103Z,99603.38
2022-11-26T12:45:43.980Z,99667.81
2022-11-26T12:48:15.703Z,99672.84
2022-11-26T12:50:48.211Z,99663.84
2022-11-26T12:53:37.018Z,99602.66
2022-11-26T12:56:25.540Z,99672.84
2022-11-26T12:59:18.545Z,99524.63
2022-11-26T13:01:45.507Z,99605.19
2022-11-26T13:04:36.854Z,99635.25
2022-11-26T13:07:13.032Z,99669.88
2022-11-26T13:10:00.596Z,99682.69
2022-11-26T13:12:52.205Z,99677.84
2022-11-26T13:15:35.232Z,99651.75
2022-11-26T13:18:04.516Z,99670.09
2022-11-26T13:21:10.231Z,99584.25
2022-11-26T13:23:50.936Z,99673.63
2022-11-26T13:26:48.621Z,99666.25
2022-11-26T13:29:41.622Z,99666.50
2022-11-26T13:32:14.149Z,99660.47
2022-11-26T13:35:18.082Z,99666.38
2022-11-26T13:38:17.628Z,99608.69
2022-11-26T13:41:06.021Z,99678.06
2022-11-26T13:43:54.724Z,99674.22
2022-11-26T13:46:32.060Z,99657.06
2022-11-26T13:49:14.432Z,99600.34
2022-11-26T13:51:53.404Z,99656.13
2022-11-26T13:54:26.903Z,99668.78
2022-11-26T13:57:06.148Z,99624.06
2022-11-26T13:59:34.369Z,99609.63
2022-11-26T14:02:32.933Z,99663.72
2022-11-26T14:05:02.079Z,99567.94
2022-11-26T14:07:28.900Z,99652.69
2022-11-26T14:09:58.367Z,99677.34
2022-11-26T14:13:03.083Z,99627.06
2022-11-26T14:16:05.129Z,99629.44
2022-11-26T14:18:50.509Z,99683.88
2022-11-26T14:21:21.600Z,99661.28
2022-11-26T14:23:49.517Z,99679.59
2022-11-26T14:26:23.594Z,99691.69
2022-11-26T14:29:01.289Z,99638.25
2022-11-26T14:31:31.643Z,99617.66
2022-11-26T14:34:07.560Z,99539.41
2022-11-26T14:36:34.420Z,99628.00
2022-11-26T14:39:10.184Z,99690.03
2022-11-26T14:41:42.916Z,99683.72
2022-11-26T14:44:14.840Z,99622.56
2022-11-26T14:46:44.518Z,99643.09
2022-11-26T14:49:36.236Z,99612.44
2022-11-26T14:52:32.186Z,99692.88
2022-11-26T14:55:02.772Z,99641.09
2022-11-26T14:57:40.852Z,99628.13
2022-11-26T15:00:13.460Z,99687.88
2022-11-26T15:02:46.310Z,99613.63
2022-11-26T15:05:16.853Z,99692.06
2022-11-26T15:07:44.478Z,99690.31
2022-11-26T15:10:14.209Z,99694.38
2022-11-26T15:12:42.195Z,99637.22
2022-11-26T15:15:27.139Z,99653.63
2022-11-26T15:17:58.830Z,99613.66
2022-11-26T15:20:28.144Z,99679.97
2022-11-26T15:22:58.122Z,99647.44
2022-11-26T15:25:34.459Z,99641.16
2022-11-26T15:28:06.273Z,99625.88
2022-11-26T15:30:37.971Z,99686.19
2022-11-26T15:33:13.292Z,99592.97
2022-11-26T15:35:41.426Z,99628.38
2022-11-26T15:38:15.231Z,99654.94
2022-11-26T15:40:56.064Z,99612.88
2022-11-26T15:43:29.085Z,99685.72
2022-11-26T15:46:12.290Z,99585.78
2022-11-26T15:49:01.853Z,99672.16
2022-11-26T15:51:37.665Z,99674.00
2022-11-26T15:54:26.411Z,99675.78
2022-11-26T15:57:07.943Z,99647.81
2022-11-26T15:59:46.303Z,99612.38
2022-11-26T16:02:24.637Z,99568.97
2022-11-26T16:04:56.593Z,99616.44
2022-11-26T16:07:33.614Z,99640.34
2022-11-26T16:10:21.450Z,99638.44
2022-11-26T16:13:16.615Z,99670.84
2022-11-26T16:15:59.290Z,99640.31
2022-11-26T16:18:39.697Z,99609.88
2022-11-26T16:21:33.411Z,99669.53
2022-11-26T16:24:26.210Z,99666.34
2022-11-26T16:26:57.720Z,99673.81
2022-11-26T16:29:25.473Z,99618.19
2022-11-26T16:31:52.123Z,99623.56
2022-11-26T16:34:19.032Z,99619.88
2022-11-26T16:36:46.100Z,99619.63
2022-11-26T16:39:16.685Z,99625.59
2022-11-26T16:41:43.319Z,99605.00
2022-11-26T16:44:10.027Z,99628.78
2022-11-26T16:46:38.049Z,99683.47
2022-11-26T16:49:05.248Z,99639.88
2022-11-26T16:51:31.972Z,99641.38
2022-11-26T16:53:58.658Z,99622.94
2022-11-26T16:56:32.128Z,99684.38
2022-11-26T16:58:59.610Z,99650.31
2022-11-26T17:01:26.236Z,99616.28
2022-11-26T17:03:53.341Z,99675.50
2022-11-26T17:06:27.597Z,99664.72
2022-11-26T17:08:56.282Z,99607.41
2022-11-26T17:11:23.830Z,99649.03
2022-11-26T17:13:50.720Z,99633.50
2022-11-26T17:16:22.736Z,99683.31
2022-11-26T17:18:49.760Z,99691.19
2022-11-26T17:21:16.440Z,99579.59
2022-11-26T17:23:43.109Z,99639.19
2022-11-26T17:26:20.005Z,99685.78
2022-11-26T17:28:47.207Z,99687.56
2022-11-26T17:31:13.911Z,99594.28
2022-11-26T17:33:40.767Z,99657.31
2022-11-26T17:36:25.494Z,99633.50
2022-11-26T17:38:52.534Z,99687.13
2022-11-26T17:41:19.172Z,99676.72
2022-11-26T17:44:10.946Z,99596.28
2022-11-26T17:46:54.442Z,99631.69
2022-11-26T17:49:26.527Z,99663.19
2022-11-26T17:51:53.309Z,99626.31
2022-11-26T17:54:20.257Z,99636.75
2022-11-26T17:56:47.957Z,99632.19
2022-11-26T17:59:18.304Z,99653.16
2022-11-26T18:01:51.299Z,99606.06
2022-11-26T18:04:18.096Z,99648.44
2022-11-26T18:06:51.895Z,99607.03
2022-11-26T18:09:23.326Z,99666.72
2022-11-26T18:11:55.734Z,99670.56
2022-11-26T18:14:24.437Z,99644.91
2022-11-26T18:16:52.228Z,99669.41
2022-11-26T18:19:22.592Z,99644.75
2022-11-26T18:21:50.582Z,99605.06
2022-11-26T18:24:20.628Z,99671.47
2022-11-26T18:26:47.447Z,99602.28
2022-11-26T18:29:14.253Z,99675.09
2022-11-26T18:31:41.899Z,99648.59
2022-11-26T18:34:10.534Z,99612.75
2022-11-26T18:36:38.472Z,99596.41
2022-11-26T18:39:06.090Z,99645.53
2022-11-26T18:41:34.099Z,99617.38
2022-11-26T18:44:01.578Z,99655.66
2022-11-26T18:46:30.191Z,99688.31
2022-11-26T18:48:57.568Z,99613.09
2022-11-26T18:51:24.736Z,99604.28
2022-11-26T18:53:51.634Z,99572.72
2022-11-26T18:56:21.245Z,99657.75
2022-11-26T18:58:49.321Z,99645.03
2022-11-26T19:01:31.477Z,99670.00
2022-11-26T19:03:59.449Z,99612.97
2022-11-26T19:06:29.310Z,99596.47
2022-11-26T19:09:01.543Z,99603.09
2022-11-26T19:11:29.044Z,99638.28
2022-11-26T19:13:57.016Z,99622.41
2022-11-26T19:16:27.369Z,99573.09
2022-11-26T19:18:54.448Z,99512.66
2022-11-26T19:21:39.233Z,99619.09
2022-11-26T19:24:08.481Z,99663.53
2022-11-26T19:26:36.869Z,99621.59
2022-11-26T19:29:07.730Z,99595.59
2022-11-26T19:31:34.901Z,99595.00
2022-11-26T19:34:03.685Z,99597.47
2022-11-26T19:36:30.444Z,99614.59
2022-11-26T19:38:58.800Z,99667.97
2022-11-26T19:41:27.902Z,99567.06
2022-11-26T19:43:55.549Z,99578.00
2022-11-26T19:46:24.195Z,99655.22
2022-11-26T19:48:52.144Z,99603.41
2022-11-26T19:51:20.810Z,99607.59
2022-11-26T19:53:51.557Z,99583.69
2022-11-26T19:56:19.897Z,99646.19
2022-11-26T19:58:47.168Z,99574.25
2022-11-26T20:01:18.084Z,99640.25
2022-11-26T20:03:46.104Z,99607.66
2022-11-26T20:06:15.928Z,99598.16
2022-11-26T20:08:43.423Z,99659.59
2022-11-26T20:11:11.041Z,99576.38
2022-11-26T20:13:40.288Z,99649.88
2022-11-26T20:16:09.731Z,99543.25
2022-11-26T20:18:37.976Z,99657.81
2022-11-26T20:21:14.669Z,99574.38
2022-11-26T20:23:43.829Z,99592.91
2022-11-26T20:26:19.653Z,99654.16
2022-11-26T20:28:46.512Z,99654.84
2022-11-26T20:31:18.199Z,99616.91
2022-11-26T20:33:50.202Z,99600.38
2022-11-26T20:36:17.667Z,99610.03
2022-11-26T20:38:44.301Z,99618.00
2022-11-26T20:41:13.380Z,99627.41
2022-11-26T20:43:40.161Z,99593.50
2022-11-26T20:46:08.081Z,99663.75
2022-11-26T20:48:36.634Z,99666.38
2022-11-26T20:51:09.858Z,99623.44
2022-11-26T20:53:38.042Z,99659.50
2022-11-26T20:56:06.307Z,99618.13
2022-11-26T20:58:34.575Z,99596.25
2022-11-26T21:01:02.341Z,99609.59
2022-11-26T21:03:29.288Z,99597.91
2022-11-26T21:05:55.907Z,99632.03
2022-11-26T21:08:23.207Z,99577.47
2022-11-26T21:10:50.589Z,99586.25
2022-11-26T21:13:18.699Z,99592.41
2022-11-26T21:15:46.366Z,99644.84
2022-11-26T21:18:14.754Z,99495.91
2022-11-26T21:20:43.154Z,99640.47
2022-11-26T21:23:11.252Z,99625.69
2022-11-26T21:25:39.469Z,99645.19
2022-11-26T21:28:07.422Z,99632.31
2022-11-26T21:30:40.840Z,99571.34
2022-11-26T21:33:09.623Z,99585.13
2022-11-26T21:35:37.683Z,99658.16
2022-11-26T21:38:05.799Z,99634.94
2022-11-26T21:40:33.564Z,99616.00
2022-11-26T21:43:16.851Z,99611.63
2022-11-26T21:45:43.553Z,99576.66
2022-11-26T21:48:10.253Z,99596.19
2022-11-26T21:50:36.944Z,99589.63
2022-11-26T21:53:03.554Z,99594.97
2022-11-26T21:55:30.951Z,99593.06
2022-11-26T21:57:58.134Z,99587.16
2022-11-26T22:00:24.855Z,99623.28
2022-11-26T22:02:51.491Z,99622.31
2022-11-26T22:05:18.142Z,99621.00
2022-11-26T22:07:44.884Z,99676.38
2022-11-26T22:10:11.737Z,99623.22
2022-11-26T22:12:38.300Z,99670.09
2022-11-26T22:15:05.396Z,99622.91
2022-11-26T22:17:32.055Z,99603.13
2022-11-26T22:19:58.738Z,99626.22
2022-11-26T22:22:27.456Z,99524.56
2022-11-26T22:24:54.242Z,99594.22
2022-11-26T22:27:21.150Z,99617.06
2022-11-26T22:29:48.285Z,99626.13
2022-11-26T22:32:15.236Z,99621.13
2022-11-26T22:34:41.883Z,99641.09
2022-11-26T22:37:08.472Z,99624.78
2022-11-26T22:39:35.184Z,99591.38
2022-11-26T22:42:01.777Z,99589.00
2022-11-26T22:44:28.408Z,99607.53
2022-11-26T22:46:55.065Z,99622.69
2022-11-26T22:49:21.743Z,99640.56
2022-11-26T22:51:48.308Z,99548.25
2022-11-26T22:54:16.360Z,99658.72
2022-11-26T22:56:42.919Z,99603.66
2022-11-26T22:59:12.685Z,99663.44
2022-11-26T23:01:39.670Z,99602.06
2022-11-26T23:04:09.052Z,99648.63
2022-11-26T23:06:36.632Z,99627.16
2022-11-26T23:09:06.269Z,99600.16
2022-11-26T23:11:37.139Z,99583.66
2022-11-26T23:14:04.349Z,99560.09
2022-11-26T23:16:30.960Z,99579.09
2022-11-26T23:18:57.727Z,99608.53
2022-11-26T23:21:27.719Z,99624.94
2022-11-26T23:23:55.567Z,99558.78
2022-11-26T23:26:27.445Z,99568.69
2022-11-26T23:28:56.697Z,99514.34
2022-11-26T23:31:26.487Z,99616.34
2022-11-26T23:33:53.579Z,99537.03
2022-11-26T23:36:21.397Z,99554.03
2022-11-26T23:38:48.137Z,99541.22
2022-11-26T23:41:15.240Z,99610.00
2022-11-26T23:43:42.279Z,99519.59
2022-11-26T23:46:27.780Z,99529.25
2022-11-26T23:48:55.214Z,99518.53
2022-11-26T23:51:24.746Z,99584.47
2022-11-26T23:53:52.817Z,99528.47
2022-11-26T23:56:25.667Z,99547.13
2022-11-26T23:58:57.388Z,99585.81
